Time;durP1;ratioP1;P1;durP2;ratioP2;P2;SDS_P1;SDS_P2;PMS_P1;PMS_P2;Temp;Humidity;BMP_temperature;BMP_pressure;BME280_temperature;BME280_humidity;BME280_pressure;Samples;Min_cycle;Max_cycle;Signal;HPM_P1;HPM_P2
2023/07/24 00:00:30;;;;;;;1.30;1.20;;;20.40;99.90;;;;;;5091639;28;20093;-67
2023/07/24 00:02:56;;;;;;;1.08;0.98;;;20.30;99.90;;;;;;5091415;28;20032;-67
2023/07/24 00:05:21;;;;;;;1.73;1.45;;;20.30;99.90;;;;;;5090822;28;20024;-67
2023/07/24 00:07:47;;;;;;;1.13;1.02;;;20.30;99.90;;;;;;5091310;28;20028;-67
2023/07/24 00:10:13;;;;;;;3.95;1.10;;;20.30;99.90;;;;;;5091189;28;20032;-67
2023/07/24 00:12:38;;;;;;;1.40;1.27;;;20.20;99.90;;;;;;5090293;28;20047;-67
2023/07/24 00:15:04;;;;;;;1.73;1.40;;;20.30;99.90;;;;;;5091173;28;20031;-68
2023/07/24 00:17:30;;;;;;;2.45;1.20;;;20.20;99.90;;;;;;5091669;28;20032;-67
2023/07/24 00:19:56;;;;;;;1.20;1.10;;;20.30;99.90;;;;;;5091254;28;20093;-68
2023/07/24 00:22:21;;;;;;;2.58;1.50;;;20.30;99.90;;;;;;5091609;28;20044;-68
2023/07/24 00:24:47;;;;;;;2.45;1.23;;;20.20;99.90;;;;;;5091398;28;20443;-68
2023/07/24 00:27:13;;;;;;;2.70;1.60;;;20.10;99.90;;;;;;5091208;28;20446;-67
2023/07/24 00:29:39;;;;;;;1.77;1.33;;;20.20;99.90;;;;;;5091670;28;20024;-69
2023/07/24 00:32:05;;;;;;;1.55;1.45;;;20.20;99.90;;;;;;5091014;28;20478;-68
2023/07/24 00:34:31;;;;;;;1.55;1.45;;;20.20;99.90;;;;;;5091276;28;20193;-68
2023/07/24 00:36:56;;;;;;;2.13;1.27;;;20.20;99.90;;;;;;5091180;28;20028;-67
2023/07/24 00:39:22;;;;;;;2.08;1.55;;;20.20;99.90;;;;;;5090975;28;20017;-67
2023/07/24 00:41:48;;;;;;;3.42;1.50;;;20.10;99.90;;;;;;5091390;28;20052;-66
2023/07/24 00:44:13;;;;;;;1.75;1.30;;;20.10;99.90;;;;;;5090989;28;20103;-69
2023/07/24 00:46:40;;;;;;;1.55;1.25;;;20.10;99.90;;;;;;5090956;28;20173;-69
2023/07/24 00:49:06;;;;;;;1.50;1.40;;;20.10;99.90;;;;;;5090978;28;20102;-69
2023/07/24 00:51:33;;;;;;;2.58;1.60;;;20.10;99.90;;;;;;5091017;28;20054;-68
2023/07/24 00:54:01;;;;;;;2.15;1.42;;;20.20;99.90;;;;;;5090831;28;20511;-68
2023/07/24 00:56:28;;;;;;;4.00;1.73;;;20.20;99.90;;;;;;5091219;28;20517;-68
2023/07/24 00:58:55;;;;;;;3.17;2.20;;;20.20;99.90;;;;;;5090842;28;20036;-67
2023/07/24 01:01:22;;;;;;;2.72;2.08;;;20.10;99.90;;;;;;5090953;28;20028;-69
2023/07/24 01:03:48;;;;;;;3.08;1.98;;;20.10;99.90;;;;;;5090784;28;20029;-68
2023/07/24 01:06:14;;;;;;;3.50;1.92;;;20.20;99.90;;;;;;5091170;28;20093;-67
2023/07/24 01:08:40;;;;;;;2.35;1.85;;;20.10;99.90;;;;;;5091254;28;20040;-68
2023/07/24 01:11:32;;;;;;;2.35;1.98;;;20.10;99.90;;;;;;5090715;28;20032;-69
2023/07/24 01:14:04;;;;;;;3.65;2.15;;;20.10;99.90;;;;;;5086155;28;20077;-68
2023/07/24 01:16:43;;;;;;;2.95;2.08;;;20.10;99.90;;;;;;5089288;28;20036;-67
2023/07/24 01:19:24;;;;;;;2.60;2.08;;;20.10;99.90;;;;;;5090560;28;20028;-68
2023/07/24 01:22:05;;;;;;;3.88;2.75;;;20.10;99.90;;;;;;5090625;28;20319;-69
2023/07/24 01:24:46;;;;;;;3.70;2.60;;;20.10;99.90;;;;;;5089336;28;20378;-68
2023/07/24 01:27:20;;;;;;;3.15;2.53;;;20.10;99.90;;;;;;5090537;28;20033;-68
2023/07/24 01:29:46;;;;;;;2.88;2.33;;;20.10;99.90;;;;;;5089845;28;20454;-68
2023/07/24 01:32:11;;;;;;;2.88;2.53;;;20.10;99.90;;;;;;5093598;28;20142;-68
2023/07/24 01:34:37;;;;;;;2.95;2.53;;;20.10;99.90;;;;;;5094457;28;20036;-70
2023/07/24 01:37:03;;;;;;;3.50;2.50;;;20.10;99.90;;;;;;5074747;28;20347;-67
2023/07/24 01:39:29;;;;;;;3.20;2.70;;;20.10;99.90;;;;;;5074364;28;20028;-69
2023/07/24 01:41:55;;;;;;;4.18;2.33;;;20.10;99.90;;;;;;5074418;28;20416;-68
2023/07/24 01:44:20;;;;;;;3.22;2.63;;;20.10;99.90;;;;;;5074804;28;20036;-70
2023/07/24 01:46:46;;;;;;;4.05;2.90;;;20.10;99.90;;;;;;5074101;28;20435;-69
2023/07/24 01:49:12;;;;;;;4.57;3.15;;;20.10;99.90;;;;;;5073134;28;20029;-69
2023/07/24 01:51:37;;;;;;;3.55;2.95;;;20.10;99.90;;;;;;5074050;28;20455;-67
2023/07/24 01:54:03;;;;;;;3.17;2.78;;;20.10;99.90;;;;;;5073812;28;20073;-68
2023/07/24 01:56:28;;;;;;;3.08;2.75;;;20.10;99.90;;;;;;5074514;28;20339;-69
2023/07/24 01:58:54;;;;;;;3.28;2.90;;;20.10;99.90;;;;;;5073805;28;20416;-68
2023/07/24 02:01:20;;;;;;;4.00;2.70;;;20.10;99.90;;;;;;5072767;28;20475;-69
2023/07/24 02:03:45;;;;;;;3.25;2.95;;;20.10;99.90;;;;;;5073857;28;20146;-68
2023/07/24 02:06:11;;;;;;;5.60;2.53;;;20.20;99.90;;;;;;5073747;28;20036;-68
2023/07/24 02:08:36;;;;;;;4.18;2.80;;;20.10;99.90;;;;;;5074353;28;20106;-68
2023/07/24 02:11:02;;;;;;;3.67;3.15;;;20.10;99.90;;;;;;5073563;28;20035;-69
2023/07/24 02:13:28;;;;;;;4.60;3.08;;;20.10;99.90;;;;;;5072525;28;20090;-68
2023/07/24 02:15:53;;;;;;;4.97;2.88;;;20.10;99.90;;;;;;5073376;28;20048;-69
2023/07/24 02:18:19;;;;;;;3.97;3.17;;;20.10;99.90;;;;;;5073341;28;20133;-68
2023/07/24 02:20:51;;;;;;;4.20;3.22;;;20.10;99.90;;;;;;5074219;28;20036;-69
2023/07/24 02:23:17;;;;;;;3.90;3.10;;;20.00;99.90;;;;;;5073681;28;20045;-69
2023/07/24 02:25:43;;;;;;;4.28;2.90;;;20.00;99.90;;;;;;5073379;28;20112;-68
2023/07/24 02:28:08;;;;;;;3.75;3.35;;;20.00;99.90;;;;;;5073501;28;20035;-69
2023/07/24 02:30:38;;;;;;;4.70;3.45;;;20.00;99.90;;;;;;5073363;28;20033;-68
2023/07/24 02:33:03;;;;;;;3.20;2.90;;;20.00;99.90;;;;;;5073007;28;20054;-69
2023/07/24 02:35:29;;;;;;;4.50;3.20;;;20.00;99.90;;;;;;5072534;28;20024;-67
2023/07/24 02:37:55;;;;;;;3.05;2.70;;;20.00;99.90;;;;;;5073177;28;20109;-69
2023/07/24 02:40:20;;;;;;;4.85;3.50;;;20.00;99.90;;;;;;5073040;28;20071;-68
2023/07/24 02:42:46;;;;;;;5.20;3.28;;;20.00;99.90;;;;;;5072850;28;20040;-69
2023/07/24 02:45:11;;;;;;;9.80;3.30;;;20.00;99.90;;;;;;5072943;28;20103;-69
2023/07/24 02:47:37;;;;;;;3.88;3.08;;;19.90;99.90;;;;;;5073414;28;20155;-69
2023/07/24 02:50:04;;;;;;;4.03;3.10;;;20.00;99.90;;;;;;5073001;28;20025;-68
2023/07/24 02:52:29;;;;;;;3.92;3.30;;;19.90;99.90;;;;;;5071971;28;20413;-69
2023/07/24 02:54:55;;;;;;;4.28;3.30;;;20.00;99.90;;;;;;5072858;28;20041;-69
2023/07/24 02:57:21;;;;;;;5.90;3.13;;;19.90;99.90;;;;;;5072896;28;20055;-68
2023/07/24 02:59:46;;;;;;;4.47;3.47;;;20.00;99.90;;;;;;5073917;28;20044;-68
2023/07/24 03:02:12;;;;;;;4.45;3.28;;;19.90;99.90;;;;;;5072683;28;20510;-69
2023/07/24 03:04:38;;;;;;;5.75;3.08;;;20.00;99.90;;;;;;5072667;28;20036;-69
2023/07/24 03:07:03;;;;;;;4.78;3.22;;;20.00;99.90;;;;;;5071519;28;20123;-68
2023/07/24 03:09:29;;;;;;;3.58;3.17;;;20.00;99.90;;;;;;5072636;28;20021;-68
2023/07/24 03:11:55;;;;;;;5.25;2.75;;;20.00;99.90;;;;;;5072733;28;20021;-68
2023/07/24 03:14:20;;;;;;;5.13;3.28;;;20.00;99.90;;;;;;5072959;28;20035;-69
2023/07/24 03:16:46;;;;;;;3.67;2.88;;;20.10;99.90;;;;;;5072436;28;20036;-68
2023/07/24 03:19:11;;;;;;;4.00;3.13;;;20.00;99.90;;;;;;5072476;28;20091;-68
2023/07/24 03:21:37;;;;;;;3.13;2.83;;;20.00;99.90;;;;;;5072338;28;20029;-69
2023/07/24 03:24:03;;;;;;;3.90;3.00;;;20.10;99.90;;;;;;5072266;28;20028;-68
2023/07/24 03:26:29;;;;;;;3.13;2.83;;;20.10;99.90;;;;;;5071822;28;20039;-68
2023/07/24 03:28:54;;;;;;;3.30;2.97;;;20.00;99.90;;;;;;5072198;28;20279;-69
2023/07/24 03:31:20;;;;;;;4.88;2.72;;;20.00;99.90;;;;;;5072115;28;20028;-69
2023/07/24 03:33:45;;;;;;;3.97;2.65;;;20.10;99.90;;;;;;5072594;28;20074;-68
2023/07/24 03:36:11;;;;;;;3.40;2.92;;;20.10;99.90;;;;;;5071870;28;20479;-69
2023/07/24 03:38:37;;;;;;;3.25;2.35;;;20.00;99.90;;;;;;5072492;28;20040;-69
2023/07/24 03:41:02;;;;;;;6.68;2.78;;;20.00;99.90;;;;;;5072105;28;20447;-69
2023/07/24 03:43:28;;;;;;;3.60;2.38;;;20.00;99.90;;;;;;5072321;28;20032;-68
2023/07/24 03:45:53;;;;;;;2.60;2.10;;;20.10;99.90;;;;;;5071828;28;20048;-68
2023/07/24 03:48:19;;;;;;;5.78;2.20;;;20.10;99.90;;;;;;5071559;28;20025;-68
2023/07/24 03:50:45;;;;;;;3.05;2.08;;;20.10;99.90;;;;;;5071088;28;20033;-70
2023/07/24 03:53:10;;;;;;;2.10;1.80;;;20.10;99.90;;;;;;5071191;28;20387;-68
2023/07/24 03:55:36;;;;;;;4.18;1.95;;;20.00;99.90;;;;;;5071497;28;20082;-69
2023/07/24 03:58:01;;;;;;;3.33;1.75;;;20.00;99.90;;;;;;5071556;28;20032;-68
2023/07/24 04:00:27;;;;;;;4.60;1.67;;;20.00;99.90;;;;;;5071440;28;20025;-70
2023/07/24 04:02:53;;;;;;;2.00;1.77;;;20.00;99.90;;;;;;5070372;28;20028;-69
2023/07/24 04:05:18;;;;;;;2.50;1.75;;;20.00;99.90;;;;;;5072002;28;20033;-68
2023/07/24 04:07:44;;;;;;;2.40;1.63;;;19.90;99.90;;;;;;5071459;28;20033;-69
2023/07/24 04:10:10;;;;;;;3.08;1.88;;;19.90;99.90;;;;;;5070491;28;20470;-68
2023/07/24 04:12:35;;;;;;;3.40;2.22;;;19.90;99.90;;;;;;5071494;28;20375;-69
2023/07/24 04:15:01;;;;;;;2.67;1.65;;;19.90;99.90;;;;;;5071142;28;20462;-69
2023/07/24 04:17:27;;;;;;;3.50;2.10;;;19.90;99.90;;;;;;5071902;28;20028;-69
2023/07/24 04:19:52;;;;;;;3.00;1.58;;;19.90;99.90;;;;;;5071445;28;20021;-69
2023/07/24 04:22:18;;;;;;;4.57;2.42;;;19.80;99.90;;;;;;5071362;28;20039;-70
2023/07/24 04:24:44;;;;;;;2.83;1.58;;;19.80;99.90;;;;;;5071093;28;20151;-69
2023/07/24 04:27:09;;;;;;;1.95;1.70;;;19.90;99.90;;;;;;5070057;28;20032;-69
2023/07/24 04:29:35;;;;;;;3.42;1.77;;;19.90;99.90;;;;;;5070292;28;20613;-70
2023/07/24 04:32:00;;;;;;;4.03;1.85;;;19.90;99.90;;;;;;5069540;28;20394;-69
2023/07/24 04:34:26;;;;;;;3.67;1.85;;;19.90;99.90;;;;;;5070764;28;20048;-70
2023/07/24 04:36:52;;;;;;;4.05;2.10;;;19.80;99.90;;;;;;5071014;28;20109;-69
2023/07/24 04:39:17;;;;;;;2.50;1.80;;;19.90;99.90;;;;;;5070698;28;20028;-68
2023/07/24 04:41:43;;;;;;;2.90;2.25;;;19.80;99.90;;;;;;5070107;28;20036;-69
2023/07/24 04:44:08;;;;;;;2.42;1.90;;;19.90;99.90;;;;;;5071150;28;20386;-70
2023/07/24 04:46:34;;;;;;;3.05;2.00;;;19.80;99.90;;;;;;5070733;28;20039;-69
2023/07/24 04:49:00;;;;;;;4.72;1.70;;;19.90;99.90;;;;;;5070632;28;20040;-70
2023/07/24 04:51:25;;;;;;;6.15;2.20;;;19.80;99.90;;;;;;5070777;28;20060;-69
2023/07/24 04:53:51;;;;;;;2.25;1.67;;;19.80;99.90;;;;;;5070801;28;20028;-68
2023/07/24 04:56:16;;;;;;;5.13;2.45;;;19.80;99.90;;;;;;5071398;28;20033;-69
2023/07/24 04:58:42;;;;;;;2.75;1.95;;;19.80;99.90;;;;;;5070696;28;20486;-69
2023/07/24 05:01:09;;;;;;;4.60;2.08;;;19.80;99.90;;;;;;5070572;28;20463;-71
2023/07/24 05:03:34;;;;;;;2.95;1.73;;;19.80;99.90;;;;;;5070778;28;20055;-68
2023/07/24 05:06:00;;;;;;;2.80;1.77;;;19.90;99.90;;;;;;5069546;28;20052;-69
2023/07/24 05:08:25;;;;;;;2.33;1.88;;;19.90;99.90;;;;;;5071086;28;20029;-68
2023/07/24 05:10:56;;;;;;;2.38;1.48;;;19.90;99.90;;;;;;5070404;28;20074;-69
2023/07/24 05:13:21;;;;;;;3.38;1.45;;;19.90;99.90;;;;;;5070422;28;20036;-69
2023/07/24 05:15:47;;;;;;;4.72;1.83;;;20.00;99.90;;;;;;5070250;28;20043;-69
2023/07/24 05:18:12;;;;;;;2.80;1.83;;;20.00;99.90;;;;;;5070543;28;20033;-69
2023/07/24 05:20:38;;;;;;;2.10;1.75;;;20.00;99.90;;;;;;5071079;28;20024;-69
2023/07/24 05:23:04;;;;;;;3.45;1.60;;;20.10;99.90;;;;;;5070342;28;20366;-68
2023/07/24 05:25:29;;;;;;;2.25;1.60;;;20.20;99.90;;;;;;5069383;28;20040;-68
2023/07/24 05:27:55;;;;;;;2.63;1.63;;;20.20;99.90;;;;;;5070341;28;20047;-68
2023/07/24 05:30:21;;;;;;;5.25;1.67;;;20.30;99.90;;;;;;5070322;28;20043;-68
2023/07/24 05:32:46;;;;;;;8.60;2.33;;;20.30;99.90;;;;;;5070470;28;20048;-68
2023/07/24 05:35:12;;;;;;;1.98;1.50;;;20.40;99.90;;;;;;5070230;28;20029;-69
2023/07/24 05:37:37;;;;;;;2.60;1.58;;;20.40;99.90;;;;;;5070216;28;20115;-68
2023/07/24 05:40:04;;;;;;;2.50;1.60;;;20.40;99.90;;;;;;5069047;28;20362;-67
2023/07/24 05:42:29;;;;;;;2.00;1.80;;;20.30;99.90;;;;;;5070288;28;20522;-68
2023/07/24 05:44:55;;;;;;;3.03;1.67;;;20.40;99.90;;;;;;5070363;28;20107;-67
2023/07/24 05:47:21;;;;;;;3.50;1.30;;;20.40;99.90;;;;;;5070666;28;20638;-70
2023/07/24 05:49:46;;;;;;;5.63;1.95;;;20.30;99.90;;;;;;5070019;28;20470;-68
2023/07/24 05:52:12;;;;;;;2.80;1.80;;;20.30;99.90;;;;;;5070041;28;20314;-68
2023/07/24 05:54:38;;;;;;;1.80;1.40;;;20.30;99.90;;;;;;5069990;28;20086;-68
2023/07/24 05:57:03;;;;;;;5.88;3.92;;;20.30;99.90;;;;;;5070024;28;20032;-66
2023/07/24 05:59:30;;;;;;;4.72;3.60;;;20.20;99.90;;;;;;5070650;28;20090;-67
2023/07/24 06:01:55;;;;;;;3.30;1.90;;;20.20;99.90;;;;;;5069872;28;20025;-67
2023/07/24 06:04:21;;;;;;;3.92;1.88;;;20.20;99.90;;;;;;5069729;28;20059;-69
2023/07/24 06:06:47;;;;;;;3.15;2.10;;;20.20;99.90;;;;;;5068835;28;20102;-68
2023/07/24 06:09:12;;;;;;;1.55;1.40;;;20.10;99.90;;;;;;5070037;28;20367;-68
2023/07/24 06:11:38;;;;;;;6.22;1.92;;;20.10;99.90;;;;;;5069374;28;20021;-69
2023/07/24 06:14:03;;;;;;;7.53;4.38;;;20.10;99.90;;;;;;5069999;28;20025;-68
2023/07/24 06:16:30;;;;;;;8.55;4.90;;;20.00;99.90;;;;;;5069312;28;20370;-68
2023/07/24 06:18:55;;;;;;;2.72;1.88;;;20.00;99.90;;;;;;5073676;28;20044;-68
2023/07/24 06:21:21;;;;;;;3.88;2.05;;;20.00;99.90;;;;;;5073427;28;20039;-67
2023/07/24 06:23:46;;;;;;;2.30;1.80;;;20.00;99.90;;;;;;5073785;28;20107;-67
2023/07/24 06:26:12;;;;;;;5.40;3.80;;;19.90;99.90;;;;;;5073274;28;20032;-68
2023/07/24 06:28:38;;;;;;;9.43;3.97;;;20.00;99.90;;;;;;5073323;28;20037;-67
2023/07/24 06:31:03;;;;;;;9.02;3.78;;;20.00;99.90;;;;;;5073244;28;20059;-68
2023/07/24 06:33:29;;;;;;;2.47;1.92;;;20.10;99.90;;;;;;5073112;28;20036;-68
2023/07/24 06:35:54;;;;;;;3.35;1.88;;;20.10;99.90;;;;;;5073134;28;20456;-68
2023/07/24 06:38:21;;;;;;;4.20;2.00;;;20.10;99.90;;;;;;5073414;28;20407;-68
2023/07/24 06:40:47;;;;;;;6.78;2.33;;;20.20;99.90;;;;;;5055553;28;20035;-68
2023/07/24 06:43:12;;;;;;;4.07;1.80;;;20.20;99.90;;;;;;5073055;28;20025;-69
2023/07/24 06:45:38;;;;;;;3.72;2.25;;;20.20;99.90;;;;;;5072967;28;20208;-68
2023/07/24 06:48:04;;;;;;;4.47;2.10;;;20.20;99.90;;;;;;5072769;28;20117;-68
2023/07/24 06:50:29;;;;;;;6.82;1.98;;;20.20;99.90;;;;;;5073490;28;20035;-68
2023/07/24 06:52:55;;;;;;;6.40;2.55;;;20.20;99.90;;;;;;5072454;28;20044;-68
2023/07/24 06:55:21;;;;;;;3.50;1.80;;;20.20;99.90;;;;;;5072672;28;20040;-68
2023/07/24 06:57:46;;;;;;;3.53;1.52;;;20.20;99.90;;;;;;5072757;28;20038;-69
2023/07/24 07:00:12;;;;;;;3.70;1.90;;;20.20;99.90;;;;;;5072700;28;20056;-67
2023/07/24 07:02:38;;;;;;;3.47;1.90;;;20.30;99.90;;;;;;5073041;28;20031;-67
2023/07/24 07:05:05;;;;;;;4.28;1.98;;;20.20;99.90;;;;;;5072374;28;20037;-68
2023/07/24 07:07:31;;;;;;;4.90;2.47;;;20.20;99.90;;;;;;5072576;28;20150;-68
2023/07/24 07:09:57;;;;;;;5.05;3.10;;;20.30;99.90;;;;;;5072475;28;20032;-68
2023/07/24 07:12:23;;;;;;;7.00;3.13;;;20.20;99.90;;;;;;5072287;28;20386;-68
2023/07/24 07:14:49;;;;;;;7.50;3.03;;;20.30;99.90;;;;;;5071778;28;20425;-68
2023/07/24 07:17:14;;;;;;;3.83;2.03;;;20.30;99.90;;;;;;5072596;28;20518;-67
2023/07/24 07:19:40;;;;;;;4.47;2.28;;;20.40;99.90;;;;;;5071110;28;20374;-69
2023/07/24 07:22:06;;;;;;;3.92;2.50;;;20.40;99.90;;;;;;5071059;28;20047;-68
2023/07/24 07:24:32;;;;;;;5.18;2.63;;;20.40;99.90;;;;;;5072010;28;20417;-68
2023/07/24 07:26:57;;;;;;;5.38;2.22;;;20.40;99.90;;;;;;5071059;28;20093;-68
2023/07/24 07:29:23;;;;;;;5.40;2.75;;;20.40;99.90;;;;;;5071540;28;20024;-67
2023/07/24 07:31:48;;;;;;;12.45;4.03;;;20.40;99.90;;;;;;5071906;28;20131;-68
2023/07/24 07:34:14;;;;;;;9.50;3.60;;;20.50;99.90;;;;;;5072087;28;20059;-67
2023/07/24 07:36:40;;;;;;;8.07;3.00;;;20.40;99.90;;;;;;5071748;28;20383;-69
2023/07/24 07:39:05;;;;;;;7.55;3.10;;;20.30;99.90;;;;;;5071882;28;20024;-68
2023/07/24 07:41:31;;;;;;;5.70;3.28;;;20.20;99.90;;;;;;5071374;28;20070;-67
2023/07/24 07:43:57;;;;;;;6.75;3.08;;;20.30;99.90;;;;;;5071755;28;20028;-68
2023/07/24 07:46:23;;;;;;;9.65;3.65;;;20.20;99.90;;;;;;5070687;28;20347;-68
2023/07/24 07:48:49;;;;;;;6.90;3.33;;;20.20;99.90;;;;;;5071602;28;20266;-67
2023/07/24 07:51:15;;;;;;;7.40;3.90;;;20.10;99.90;;;;;;5071616;28;20047;-67
2023/07/24 07:53:40;;;;;;;7.90;2.95;;;20.20;99.90;;;;;;5072050;28;20454;-67
2023/07/24 07:56:06;;;;;;;7.43;3.28;;;20.10;99.90;;;;;;5071579;28;20040;-68
2023/07/24 07:58:32;;;;;;;7.43;3.30;;;20.20;99.90;;;;;;5071537;28;20459;-68
2023/07/24 08:00:58;;;;;;;8.70;3.22;;;20.10;99.90;;;;;;5071507;28;20064;-67
2023/07/24 08:03:24;;;;;;;5.47;2.78;;;19.90;99.90;;;;;;5071369;28;20098;-68
2023/07/24 08:05:49;;;;;;;5.28;2.90;;;20.00;99.90;;;;;;5071246;28;20224;-68
2023/07/24 08:08:15;;;;;;;5.43;2.92;;;20.00;99.90;;;;;;5071632;28;20032;-66
2023/07/24 08:10:40;;;;;;;6.20;2.92;;;20.00;99.90;;;;;;5070304;28;20321;-69
2023/07/24 08:13:09;;;;;;;8.07;3.42;;;20.10;99.90;;;;;;5070045;28;20037;-68
2023/07/24 08:15:36;;;;;;;7.38;3.45;;;20.10;99.90;;;;;;5070946;28;20485;-68
2023/07/24 08:18:03;;;;;;;5.10;3.17;;;20.30;99.90;;;;;;5070064;28;20032;-68
2023/07/24 08:20:28;;;;;;;8.57;3.67;;;20.30;99.90;;;;;;5071450;28;20024;-68
2023/07/24 08:22:54;;;;;;;4.30;2.45;;;20.40;99.90;;;;;;5069854;28;20343;-68
2023/07/24 08:25:20;;;;;;;6.28;2.80;;;20.30;99.90;;;;;;5070968;28;20121;-67
2023/07/24 08:27:45;;;;;;;5.45;2.53;;;20.30;99.90;;;;;;5071005;28;20047;-68
2023/07/24 08:30:11;;;;;;;7.93;3.40;;;20.30;99.90;;;;;;5070894;28;20035;-67
2023/07/24 08:32:37;;;;;;;5.38;2.58;;;20.30;99.90;;;;;;5071468;28;20043;-68
2023/07/24 08:35:03;;;;;;;4.20;2.75;;;20.40;99.90;;;;;;5070966;28;20086;-68
2023/07/24 08:37:28;;;;;;;4.82;2.42;;;20.30;99.90;;;;;;5070768;28;20024;-67
2023/07/24 08:39:54;;;;;;;7.03;3.00;;;20.40;99.90;;;;;;5070534;28;20467;-68
2023/07/24 08:42:20;;;;;;;10.05;4.03;;;20.40;99.90;;;;;;5070750;28;20021;-67
2023/07/24 08:44:46;;;;;;;3.75;2.78;;;20.40;99.90;;;;;;5070910;28;20108;-67
2023/07/24 08:47:12;;;;;;;5.30;2.90;;;20.50;99.90;;;;;;5070299;28;20032;-68
2023/07/24 08:49:42;;;;;;;6.00;3.25;;;20.40;99.90;;;;;;5070810;28;20091;-67
2023/07/24 08:52:08;;;;;;;6.78;2.78;;;20.50;99.90;;;;;;5070611;28;20021;-67
2023/07/24 08:54:38;;;;;;;6.15;3.63;;;21.00;99.90;;;;;;5070534;28;20500;-68
2023/07/24 08:57:08;;;;;;;6.15;3.03;;;21.80;99.90;;;;;;5070816;28;20037;-69
2023/07/24 08:59:34;;;;;;;4.82;2.97;;;22.50;99.90;;;;;;5070985;28;20021;-67
2023/07/24 09:02:01;;;;;;;4.65;3.30;;;23.10;99.90;;;;;;5069574;28;20229;-70
2023/07/24 09:04:26;;;;;;;4.93;2.95;;;23.30;99.90;;;;;;5069353;28;20032;-68
2023/07/24 09:06:53;;;;;;;4.35;2.60;;;23.50;99.90;;;;;;5070107;28;20033;-68
2023/07/24 09:09:18;;;;;;;4.20;3.17;;;23.70;99.90;;;;;;5070129;28;20021;-67
2023/07/24 09:11:50;;;;;;;4.88;3.05;;;23.90;99.90;;;;;;5070737;28;20017;-68
2023/07/24 09:14:32;;;;;;;7.50;3.15;;;24.50;99.90;;;;;;5070394;28;20495;-69
2023/07/24 09:17:11;;;;;;;7.53;3.20;;;24.70;99.90;;;;;;5070194;28;20037;-68
2023/07/24 09:19:37;;;;;;;3.90;2.95;;;24.50;99.90;;;;;;5069048;28;20119;-68
2023/07/24 09:22:12;;;;;;;3.65;2.90;;;24.50;99.90;;;;;;5069107;28;20033;-69
2023/07/24 09:24:38;;;;;;;4.88;3.45;;;24.40;99.90;;;;;;5070480;28;20029;-68
2023/07/24 09:27:07;;;;;;;5.53;3.55;;;24.40;99.90;;;;;;5070260;28;20031;-68
2023/07/24 09:29:33;;;;;;;5.25;3.35;;;23.90;99.90;;;;;;5070700;28;20025;-69
2023/07/24 09:31:59;;;;;;;6.50;3.83;;;23.90;99.90;;;;;;5068858;28;20048;-68
2023/07/24 09:34:25;;;;;;;7.35;3.30;;;23.90;99.90;;;;;;5070176;28;20052;-69
2023/07/24 09:36:51;;;;;;;5.20;3.17;;;23.60;99.90;;;;;;5070081;28;20083;-68
2023/07/24 09:39:26;;;;;;;5.93;3.50;;;23.60;99.90;;;;;;5069988;28;20105;-69
2023/07/24 09:41:52;;;;;;;7.07;3.72;;;23.70;99.90;;;;;;5070337;28;20064;-68
2023/07/24 09:44:18;;;;;;;4.57;3.55;;;23.70;99.90;;;;;;5070468;28;20096;-69
2023/07/24 09:46:44;;;;;;;4.25;3.30;;;23.80;99.90;;;;;;5068721;28;20032;-68
2023/07/24 09:49:10;;;;;;;5.05;3.45;;;24.10;99.90;;;;;;5069672;28;20048;-69
2023/07/24 09:51:37;;;;;;;6.60;3.70;;;24.30;99.90;;;;;;5069613;28;20041;-68
2023/07/24 09:54:26;;;;;;;7.53;4.47;;;24.20;99.90;;;;;;5073902;28;20020;-68
2023/07/24 09:56:53;;;;;;;4.15;3.42;;;24.00;99.70;;;;;;5073708;28;20036;-68
2023/07/24 09:59:20;;;;;;;4.80;4.13;;;24.00;99.90;;;;;;5074247;28;20031;-69
2023/07/24 10:01:48;;;;;;;4.35;3.53;;;24.20;99.50;;;;;;5073666;28;20489;-69
2023/07/24 10:04:15;;;;;;;4.60;3.28;;;24.30;99.60;;;;;;5072448;28;20036;-69
2023/07/24 10:06:43;;;;;;;7.68;3.72;;;24.70;99.40;;;;;;5073629;28;20497;-68
2023/07/24 10:09:08;;;;;;;;;;;24.80;98.90;;;;;;5074001;28;20434;-68
2023/07/24 10:11:34;;;;;;;4.45;2.97;;;24.70;98.70;;;;;;5074417;28;19969;-69
2023/07/24 10:14:00;;;;;;;4.03;3.00;;;24.70;99.00;;;;;;5073724;28;20032;-69
2023/07/24 10:16:26;;;;;;;5.25;2.90;;;24.80;98.50;;;;;;5072202;28;20056;-68
2023/07/24 10:18:51;;;;;;;6.35;3.60;;;24.80;98.20;;;;;;5073545;28;20040;-68
2023/07/24 10:21:17;;;;;;;5.22;3.63;;;24.60;98.40;;;;;;5073447;28;20039;-68
2023/07/24 10:23:46;;;;;;;4.75;3.45;;;24.60;98.70;;;;;;5073026;28;20107;-68
2023/07/24 10:26:12;;;;;;;7.82;3.08;;;24.60;98.50;;;;;;5073330;28;20061;-68
2023/07/24 10:28:40;;;;;;;6.00;3.45;;;24.80;98.90;;;;;;5073278;28;20105;-68
2023/07/24 10:31:08;;;;;;;;;;;24.60;98.50;;;;;;5073708;28;20115;-68
2023/07/24 10:33:37;;;;;;;6.53;3.60;;;24.60;98.30;;;;;;5073056;28;19920;-69
2023/07/24 10:36:09;;;;;;;6.43;3.50;;;24.20;98.20;;;;;;5072680;28;20032;-68
2023/07/24 10:38:40;;;;;;;5.82;3.60;;;24.10;98.30;;;;;;5073335;28;20023;-68
2023/07/24 10:41:07;;;;;;;6.43;3.28;;;24.10;98.20;;;;;;5072867;28;20036;-69
2023/07/24 10:43:50;;;;;;;4.97;3.30;;;24.00;98.10;;;;;;5073270;28;20336;-70
2023/07/24 10:46:18;;;;;;;8.82;3.60;;;24.00;98.20;;;;;;5072726;28;20036;-68
2023/07/24 10:48:45;;;;;;;5.90;3.50;;;24.00;98.10;;;;;;5072649;28;20047;-68
2023/07/24 10:51:14;;;;;;;4.83;3.23;;;23.80;98.00;;;;;;5071685;28;20123;-67
2023/07/24 10:53:43;;;;;;;4.15;3.40;;;23.80;98.00;;;;;;5073666;28;20017;-68
2023/07/24 10:56:09;;;;;;;4.20;3.38;;;23.70;97.80;;;;;;5072713;28;20121;-67
2023/07/24 10:58:35;;;;;;;3.97;3.33;;;23.80;97.50;;;;;;5072744;28;20553;-67
2023/07/24 11:01:07;;;;;;;5.45;3.85;;;23.80;97.40;;;;;;5071642;28;20109;-68
2023/07/24 11:03:35;;;;;;;6.30;4.30;;;23.70;97.10;;;;;;5072448;28;20032;-67
2023/07/24 11:06:02;;;;;;;5.25;4.20;;;23.60;97.30;;;;;;5072620;28;20028;-69
2023/07/24 11:08:28;;;;;;;5.00;4.30;;;23.60;97.50;;;;;;5072854;28;20024;-68
2023/07/24 11:10:56;;;;;;;5.03;4.43;;;23.70;97.40;;;;;;5072261;28;20033;-69
2023/07/24 11:13:27;;;;;;;5.13;4.32;;;23.90;97.30;;;;;;5072708;28;20427;-68
2023/07/24 11:15:54;;;;;;;6.15;4.38;;;23.90;97.30;;;;;;5072347;28;20032;-68
2023/07/24 11:18:21;;;;;;;6.80;5.00;;;24.00;97.00;;;;;;5072251;28;20033;-68
2023/07/24 11:20:53;;;;;;;6.22;4.47;;;24.20;96.90;;;;;;5072698;28;20264;-68
2023/07/24 11:23:19;;;;;;;7.05;4.45;;;24.30;96.70;;;;;;5072100;28;20044;-69
2023/07/24 11:25:46;;;;;;;4.32;3.90;;;24.30;96.40;;;;;;5072167;28;20484;-68
2023/07/24 11:28:14;;;;;;;6.35;3.83;;;24.40;96.60;;;;;;5072241;28;20116;-68
2023/07/24 11:30:41;;;;;;;5.28;4.10;;;24.50;96.10;;;;;;5072235;28;20029;-69
2023/07/24 11:33:08;;;;;;;6.78;3.75;;;24.40;96.30;;;;;;5072380;28;20071;-68
2023/07/24 11:35:36;;;;;;;5.10;3.97;;;24.40;96.50;;;;;;5071265;28;20047;-69
2023/07/24 11:38:02;;;;;;;5.45;4.43;;;24.40;96.40;;;;;;5072019;28;20063;-67
2023/07/24 11:40:39;;;;;;;6.88;3.80;;;24.40;96.60;;;;;;5071702;28;20059;-70
2023/07/24 11:43:14;;;;;;;2.42;2.22;;;24.10;96.60;;;;;;5070830;28;20123;-68
2023/07/24 11:45:42;;;;;;;2.22;1.77;;;23.70;97.80;;;;;;5072059;28;20102;-67
2023/07/24 11:48:11;;;;;;;2.35;1.88;;;23.50;98.50;;;;;;5071777;28;20316;-68
2023/07/24 11:50:45;;;;;;;3.00;1.40;;;23.40;99.00;;;;;;5070954;28;20020;-68
2023/07/24 11:53:28;;;;;;;1.85;1.75;;;23.30;99.40;;;;;;5071730;28;20608;-68
2023/07/24 11:55:59;;;;;;;4.32;3.53;;;23.30;99.90;;;;;;5070315;28;20404;-68
2023/07/24 11:58:29;;;;;;;3.80;2.40;;;23.30;99.90;;;;;;5070383;28;20020;-68
2023/07/24 12:00:56;;;;;;;7.10;4.22;;;23.20;99.90;;;;;;5071488;28;20029;-68
2023/07/24 12:03:24;;;;;;;5.65;3.97;;;23.20;99.90;;;;;;5071651;28;20028;-68
2023/07/24 12:05:50;;;;;;;3.58;2.53;;;23.30;99.90;;;;;;5071432;28;20036;-66
2023/07/24 12:08:20;;;;;;;3.55;2.97;;;23.50;99.90;;;;;;5071731;28;20550;-67
2023/07/24 12:10:45;;;;;;;9.93;3.50;;;23.50;99.90;;;;;;5070065;28;20044;-67
2023/07/24 12:13:11;;;;;;;4.85;3.40;;;23.40;99.90;;;;;;5071112;28;20035;-67
2023/07/24 12:15:37;;;;;;;8.88;4.07;;;23.20;99.90;;;;;;5070539;28;20048;-68
2023/07/24 12:18:04;;;;;;;9.18;4.18;;;23.20;99.90;;;;;;5071158;28;20020;-68
2023/07/24 12:20:30;;;;;;;4.57;3.88;;;23.10;99.90;;;;;;5072059;28;20017;-69
2023/07/24 12:22:56;;;;;;;4.68;3.58;;;23.10;99.90;;;;;;5071235;28;20036;-68
2023/07/24 12:25:22;;;;;;;5.95;3.88;;;23.10;99.90;;;;;;5071266;28;20081;-67
2023/07/24 12:27:48;;;;;;;10.38;4.47;;;23.10;99.90;;;;;;5070902;28;20541;-70
2023/07/24 12:30:14;;;;;;;9.05;4.68;;;23.10;99.90;;;;;;5070816;28;20466;-69
2023/07/24 12:32:40;;;;;;;7.90;4.10;;;23.00;99.90;;;;;;5070066;28;20052;-67
2023/07/24 12:35:08;;;;;;;8.95;4.75;;;22.80;99.90;;;;;;5070763;28;20439;-67
2023/07/24 12:37:33;;;;;;;9.20;5.13;;;22.70;99.90;;;;;;5071018;28;20025;-68
2023/07/24 12:39:59;;;;;;;8.68;5.90;;;22.70;99.90;;;;;;5069864;28;20347;-68
2023/07/24 12:42:25;;;;;;;6.43;4.57;;;22.70;99.90;;;;;;5069621;28;20051;-68
2023/07/24 12:44:51;;;;;;;6.88;4.43;;;22.70;99.90;;;;;;5070955;28;20407;-68